Time;durP1;ratioP1;P1;durP2;ratioP2;P2;SDS_P1;SDS_P2;PMS_P1;PMS_P2;Temp;Humidity;BMP_temperature;BMP_pressure;BME280_temperature;BME280_humidity;BME280_pressure;Samples;Min_cycle;Max_cycle;Signal;HPM_P1;HPM_P2
2024/02/13 00:01:14;;;;;;;10.55;5.25;;;4.00;99.90;;;;;;5006148;28;20038;-68
2024/02/13 00:03:40;;;;;;;13.70;5.18;;;4.00;99.90;;;;;;4997977;28;20491;-67
2024/02/13 00:06:05;;;;;;;10.40;4.82;;;4.10;99.90;;;;;;5006233;28;20577;-67
2024/02/13 00:08:31;;;;;;;9.68;4.50;;;4.00;99.90;;;;;;4995695;28;20060;-67
2024/02/13 00:10:57;;;;;;;12.35;4.80;;;4.00;99.90;;;;;;5001890;28;20060;-68
2024/02/13 00:13:22;;;;;;;8.05;4.05;;;4.00;99.90;;;;;;4996509;28;20041;-67
2024/02/13 00:15:48;;;;;;;12.27;4.32;;;4.00;99.90;;;;;;5010696;28;20092;-66
2024/02/13 00:18:13;;;;;;;9.73;3.80;;;4.00;99.90;;;;;;4994308;28;20487;-67
2024/02/13 00:20:59;;;;;;;13.43;3.95;;;4.10;99.90;;;;;;4991228;28;20034;-68
2024/02/13 00:23:28;;;;;;;7.57;3.30;;;4.10;99.90;;;;;;4983844;28;20120;-67
2024/02/13 00:25:53;;;;;;;13.65;4.60;;;4.00;99.90;;;;;;4994541;28;20093;-67
2024/02/13 00:28:19;;;;;;;7.65;3.80;;;4.00;99.90;;;;;;4990102;28;20053;-66
2024/02/13 00:30:45;;;;;;;14.25;4.60;;;4.00;99.90;;;;;;4994025;28;20836;-67
2024/02/13 00:33:11;;;;;;;10.30;4.70;;;4.10;99.90;;;;;;5006972;28;20069;-67
2024/02/13 00:35:36;;;;;;;9.52;4.00;;;4.00;99.90;;;;;;5009429;28;20424;-67
2024/02/13 00:38:03;;;;;;;15.07;5.28;;;4.00;99.90;;;;;;5003426;28;20042;-65
2024/02/13 00:40:28;;;;;;;12.63;4.57;;;4.00;99.90;;;;;;5014209;28;20050;-66
2024/02/13 00:42:54;;;;;;;9.18;4.45;;;3.90;99.90;;;;;;5005780;28;20030;-67
2024/02/13 00:45:19;;;;;;;7.68;4.07;;;3.90;99.90;;;;;;5008510;28;20037;-66
2024/02/13 00:47:45;;;;;;;9.43;4.30;;;3.90;99.90;;;;;;5006690;28;20046;-67
2024/02/13 00:50:10;;;;;;;10.10;3.95;;;4.00;99.90;;;;;;5006670;28;20034;-66
2024/02/13 00:52:40;;;;;;;9.57;3.65;;;4.00;99.90;;;;;;5009758;28;20041;-67
2024/02/13 00:55:09;;;;;;;14.32;4.13;;;4.00;99.90;;;;;;4997681;28;20029;-65
2024/02/13 00:57:35;;;;;;;14.05;4.22;;;4.00;99.90;;;;;;4992586;28;20060;-66
2024/02/13 01:00:04;;;;;;;11.55;4.43;;;4.00;99.90;;;;;;5006101;28;20040;-66
2024/02/13 01:02:30;;;;;;;13.68;3.95;;;3.90;99.90;;;;;;4984601;28;20042;-67
2024/02/13 01:04:55;;;;;;;9.32;4.35;;;3.80;99.90;;;;;;4987583;28;20068;-66
2024/02/13 01:07:21;;;;;;;7.85;3.70;;;3.70;99.90;;;;;;4991290;28;20557;-66
2024/02/13 01:09:46;;;;;;;11.10;3.92;;;3.70;99.90;;;;;;4982719;28;20034;-66
2024/02/13 01:12:12;;;;;;;8.18;3.08;;;3.60;99.90;;;;;;4986380;28;20140;-69
2024/02/13 01:14:38;;;;;;;8.98;3.70;;;3.50;99.90;;;;;;4986711;28;20686;-67
2024/02/13 01:17:04;;;;;;;6.70;3.00;;;3.50;99.90;;;;;;4979699;28;20047;-66
2024/02/13 01:19:31;;;;;;;10.18;2.78;;;3.40;99.90;;;;;;4986487;28;20494;-69
2024/02/13 01:21:56;;;;;;;10.10;3.05;;;3.40;99.90;;;;;;4987189;28;20158;-67
2024/02/13 01:24:24;;;;;;;7.15;3.15;;;3.30;99.90;;;;;;4988593;28;20046;-68
2024/02/13 01:26:49;;;;;;;6.63;3.22;;;3.30;99.90;;;;;;4985185;28;20050;-67
2024/02/13 01:29:15;;;;;;;11.57;3.65;;;3.20;99.90;;;;;;4994636;28;20034;-70
2024/02/13 01:31:41;;;;;;;8.23;3.03;;;3.20;99.90;;;;;;4994471;28;20034;-67
2024/02/13 01:34:09;;;;;;;8.27;3.17;;;3.20;99.90;;;;;;5005856;28;20045;-67
2024/02/13 01:36:38;;;;;;;6.80;3.00;;;3.20;99.90;;;;;;5000433;28;20885;-68
2024/02/13 01:39:04;;;;;;;6.60;3.65;;;3.10;99.90;;;;;;5003416;28;20045;-67
2024/02/13 01:41:29;;;;;;;17.05;4.63;;;3.10;99.90;;;;;;5005306;28;20037;-67
2024/02/13 01:43:59;;;;;;;7.78;3.90;;;3.00;99.90;;;;;;5002309;28;20049;-67
2024/02/13 01:46:28;;;;;;;9.75;3.80;;;3.00;99.90;;;;;;5007546;28;20060;-66
2024/02/13 01:48:58;;;;;;;14.43;4.47;;;2.90;99.90;;;;;;5004873;28;20044;-66
2024/02/13 01:51:26;;;;;;;10.90;4.22;;;2.90;99.90;;;;;;5001707;28;20513;-66
2024/02/13 01:53:52;;;;;;;12.85;4.85;;;2.90;99.90;;;;;;4996765;28;20041;-66
2024/02/13 01:56:20;;;;;;;17.25;4.95;;;2.90;99.90;;;;;;5003086;28;20156;-66
2024/02/13 01:58:46;;;;;;;13.77;4.65;;;2.90;99.90;;;;;;5003184;28;20053;-66
2024/02/13 02:01:12;;;;;;;16.05;5.80;;;2.90;99.90;;;;;;5002601;28;20046;-66
2024/02/13 02:03:38;;;;;;;11.20;5.18;;;2.90;99.90;;;;;;4982799;28;20042;-65
2024/02/13 02:06:04;;;;;;;10.15;5.15;;;2.80;99.90;;;;;;4977095;28;20113;-67
2024/02/13 02:08:29;;;;;;;12.77;5.28;;;2.80;99.90;;;;;;4979352;28;20191;-65
2024/02/13 02:10:57;;;;;;;15.07;5.95;;;2.80;99.90;;;;;;4981724;28;20045;-67
2024/02/13 02:13:27;;;;;;;12.70;6.10;;;2.90;99.90;;;;;;4980268;28;20046;-65
2024/02/13 02:15:54;;;;;;;12.38;6.07;;;2.80;99.90;;;;;;4984048;28;20521;-65
2024/02/13 02:18:20;;;;;;;13.93;5.20;;;2.90;99.90;;;;;;4983021;28;20046;-64
2024/02/13 02:20:46;;;;;;;10.65;5.60;;;2.80;99.90;;;;;;4985357;28;20096;-65
2024/02/13 02:23:13;;;;;;;15.95;5.80;;;2.80;99.90;;;;;;4976657;28;20089;-64
2024/02/13 02:25:38;;;;;;;16.08;5.43;;;2.80;99.90;;;;;;4985280;28;20046;-65
2024/02/13 02:28:04;;;;;;;13.45;5.97;;;2.80;99.90;;;;;;4983834;28;20041;-64
2024/02/13 02:30:30;;;;;;;16.50;5.88;;;2.80;99.90;;;;;;4990315;28;20049;-66
2024/02/13 02:32:55;;;;;;;10.23;5.60;;;2.70;99.90;;;;;;5002094;28;20049;-64
2024/02/13 02:35:21;;;;;;;18.35;5.85;;;2.70;99.90;;;;;;5012077;28;20186;-66
2024/02/13 02:37:50;;;;;;;14.77;5.57;;;2.60;99.90;;;;;;5009299;28;20033;-66
2024/02/13 02:40:19;;;;;;;14.68;5.45;;;2.70;99.90;;;;;;4998885;28;20824;-65
2024/02/13 02:42:49;;;;;;;9.57;4.97;;;2.60;99.90;;;;;;5001772;28;20044;-66
2024/02/13 02:45:15;;;;;;;11.43;5.45;;;2.60;99.90;;;;;;5005024;28;20053;-66
2024/02/13 02:47:42;;;;;;;14.52;5.85;;;2.60;99.90;;;;;;5007318;28;20034;-66
2024/02/13 02:50:10;;;;;;;10.73;4.60;;;2.60;99.90;;;;;;5003556;28;20078;-66
2024/02/13 02:52:36;;;;;;;11.07;4.82;;;2.50;99.90;;;;;;5004019;28;20038;-67
2024/02/13 02:55:01;;;;;;;14.10;5.18;;;2.60;99.90;;;;;;5004461;28;20121;-67
2024/02/13 02:57:27;;;;;;;18.08;5.68;;;2.50;99.90;;;;;;5000514;28;20228;-66
2024/02/13 02:59:52;;;;;;;10.32;5.38;;;2.50;99.90;;;;;;5004883;28;20038;-66
2024/02/13 03:02:20;;;;;;;16.67;5.07;;;2.50;99.90;;;;;;4981681;28;20074;-66
2024/02/13 03:04:45;;;;;;;12.65;5.93;;;2.40;99.90;;;;;;4985073;28;20060;-65
2024/02/13 03:07:12;;;;;;;9.05;4.55;;;2.40;99.90;;;;;;4981249;28;20042;-67
2024/02/13 03:09:37;;;;;;;8.40;4.40;;;2.40;99.90;;;;;;4996265;28;20037;-67
2024/02/13 03:12:03;;;;;;;15.18;6.18;;;2.40;99.90;;;;;;4986668;28;20030;-67
2024/02/13 03:14:29;;;;;;;15.23;6.75;;;2.30;99.90;;;;;;4982692;28;20085;-67
2024/02/13 03:16:54;;;;;;;13.05;6.35;;;2.40;99.90;;;;;;4972803;28;20032;-67
2024/02/13 03:19:20;;;;;;;11.68;5.93;;;2.40;99.90;;;;;;4985250;28;20030;-67
2024/02/13 03:21:45;;;;;;;10.63;6.00;;;2.30;99.90;;;;;;4985848;28;20645;-66
2024/02/13 03:24:11;;;;;;;13.90;6.13;;;2.30;99.90;;;;;;4982655;28;20041;-66
2024/02/13 03:26:36;;;;;;;11.77;6.28;;;2.20;99.90;;;;;;4993341;28;20154;-66
2024/02/13 03:29:02;;;;;;;13.82;6.07;;;2.30;99.90;;;;;;4997880;28;20037;-66
2024/02/13 03:31:28;;;;;;;10.68;6.13;;;2.30;99.90;;;;;;5005776;28;20048;-66
2024/02/13 03:33:53;;;;;;;12.77;5.95;;;2.30;99.90;;;;;;5000823;28;20034;-67
2024/02/13 03:36:19;;;;;;;16.30;6.78;;;2.30;99.90;;;;;;5010294;28;20078;-67
2024/02/13 03:38:48;;;;;;;10.57;6.10;;;2.30;99.90;;;;;;5000177;28;20128;-66
2024/02/13 03:41:13;;;;;;;12.05;6.55;;;2.30;99.90;;;;;;5011005;28;20048;-67
2024/02/13 03:43:43;;;;;;;11.43;5.25;;;2.30;99.90;;;;;;4993675;28;20046;-66
2024/02/13 03:46:09;;;;;;;12.48;5.82;;;2.30;99.90;;;;;;5002439;28;20541;-66
2024/02/13 03:48:35;;;;;;;15.35;6.45;;;2.30;99.90;;;;;;5000122;28;20042;-66
2024/02/13 03:51:01;;;;;;;9.25;5.57;;;2.20;99.90;;;;;;4999807;28;20053;-68
2024/02/13 03:53:26;;;;;;;13.02;5.75;;;2.20;99.90;;;;;;4996217;28;20042;-67
2024/02/13 03:55:52;;;;;;;12.98;5.95;;;2.20;99.90;;;;;;5003194;28;20037;-67
2024/02/13 03:58:18;;;;;;;20.05;6.97;;;2.20;99.90;;;;;;5006582;28;20038;-67
2024/02/13 04:00:44;;;;;;;11.13;6.10;;;2.20;99.90;;;;;;5001680;28;20045;-67
2024/02/13 04:03:11;;;;;;;13.48;6.38;;;2.10;99.90;;;;;;4983636;28;20046;-66
2024/02/13 04:05:38;;;;;;;18.90;7.32;;;2.10;99.90;;;;;;4991589;28;20053;-67
2024/02/13 04:08:07;;;;;;;13.32;7.40;;;2.10;99.90;;;;;;4989999;28;20046;-65
2024/02/13 04:10:36;;;;;;;20.48;7.50;;;2.20;99.90;;;;;;4990991;28;20044;-66
2024/02/13 04:13:02;;;;;;;17.30;7.47;;;2.10;99.90;;;;;;4984151;28;20057;-66
2024/02/13 04:15:31;;;;;;;13.65;7.45;;;2.20;99.90;;;;;;4990361;28;20038;-67
2024/02/13 04:18:00;;;;;;;14.93;7.15;;;2.10;99.90;;;;;;5019678;28;20046;-67
2024/02/13 04:20:26;;;;;;;17.00;7.95;;;2.10;99.90;;;;;;4970247;28;20775;-66
2024/02/13 04:22:52;;;;;;;15.98;8.48;;;2.10;99.90;;;;;;4986456;28;20045;-66
2024/02/13 04:25:18;;;;;;;20.73;8.93;;;2.00;99.90;;;;;;4987383;28;20034;-70
2024/02/13 04:27:44;;;;;;;17.33;8.02;;;2.00;99.90;;;;;;4984942;28;20042;-67
2024/02/13 04:30:13;;;;;;;13.82;7.78;;;2.00;99.90;;;;;;4982334;28;20045;-66
2024/02/13 04:32:39;;;;;;;19.23;8.93;;;2.00;99.90;;;;;;5007564;28;20094;-66
2024/02/13 04:35:07;;;;;;;15.82;8.38;;;2.00;99.90;;;;;;5007253;28;20041;-67
2024/02/13 04:37:33;;;;;;;20.63;8.55;;;2.00;99.90;;;;;;5009547;28;20037;-64
2024/02/13 04:39:59;;;;;;;15.00;7.70;;;1.90;99.90;;;;;;5010029;28;20576;-66
2024/02/13 04:42:31;;;;;;;17.30;9.30;;;1.90;99.90;;;;;;5005893;28;20030;-67
2024/02/13 04:44:57;;;;;;;19.60;9.50;;;1.90;99.90;;;;;;5007540;28;20120;-69
2024/02/13 04:47:23;;;;;;;20.73;9.50;;;1.90;99.90;;;;;;5007989;28;20053;-68
2024/02/13 04:49:49;;;;;;;15.60;8.70;;;1.90;99.90;;;;;;5005272;28;20029;-67
2024/02/13 04:52:14;;;;;;;19.65;8.75;;;1.90;99.90;;;;;;5002906;28;20039;-66
2024/02/13 04:54:40;;;;;;;18.30;9.15;;;1.80;99.90;;;;;;4999667;28;20044;-68
2024/02/13 04:57:05;;;;;;;19.75;8.77;;;1.80;99.90;;;;;;4999433;28;20056;-67
2024/02/13 04:59:37;;;;;;;17.50;8.88;;;1.80;99.90;;;;;;5012943;28;20120;-66
2024/02/13 05:02:05;;;;;;;18.45;10.00;;;1.80;99.90;;;;;;4996239;28;20041;-66
2024/02/13 05:09:42;;;;;;;19.13;10.18;;;1.80;99.90;;;;;;4987089;28;20038;-67
2024/02/13 05:12:07;;;;;;;20.05;10.65;;;1.80;99.90;;;;;;4980739;28;20169;-66
2024/02/13 05:14:33;;;;;;;18.98;9.23;;;1.80;99.90;;;;;;4986944;28;20121;-68
2024/02/13 05:17:01;;;;;;;21.33;10.07;;;1.70;99.90;;;;;;4983005;28;20041;-67
2024/02/13 05:19:27;;;;;;;20.95;9.93;;;1.70;99.90;;;;;;4983427;28;20121;-66
2024/02/13 05:21:52;;;;;;;20.90;9.90;;;1.80;99.90;;;;;;4990539;28;20118;-67
2024/02/13 05:24:18;;;;;;;14.18;8.57;;;1.80;99.90;;;;;;4985673;28;20650;-66
2024/02/13 05:26:43;;;;;;;16.80;9.82;;;1.70;99.90;;;;;;4991058;28;20122;-67
2024/02/13 05:29:09;;;;;;;20.85;10.15;;;1.70;99.90;;;;;;4998213;28;20042;-66
2024/02/13 05:31:35;;;;;;;19.42;8.82;;;1.80;99.90;;;;;;4995876;28;20459;-67
2024/02/13 05:34:03;;;;;;;17.45;9.15;;;1.80;99.90;;;;;;5004119;28;20095;-65
2024/02/13 05:36:29;;;;;;;22.17;8.80;;;1.70;99.90;;;;;;5004364;28;20056;-67
2024/02/13 05:38:55;;;;;;;19.02;9.55;;;1.80;99.90;;;;;;5002161;28;20528;-67
2024/02/13 05:41:21;;;;;;;19.13;10.30;;;1.80;99.90;;;;;;5012658;28;20042;-69
2024/02/13 05:43:47;;;;;;;18.13;8.73;;;1.80;99.90;;;;;;5004783;28;20037;-66
2024/02/13 05:46:13;;;;;;;18.92;9.80;;;1.80;99.90;;;;;;5020000;28;20046;-67
2024/02/13 05:48:42;;;;;;;22.10;10.02;;;1.80;99.90;;;;;;5000899;28;20555;-67
2024/02/13 05:51:10;;;;;;;18.58;9.23;;;1.70;99.90;;;;;;5002919;28;20037;-67
2024/02/13 05:53:36;;;;;;;19.77;9.75;;;1.80;99.90;;;;;;5002173;28;20046;-65
2024/02/13 05:56:03;;;;;;;23.08;9.90;;;1.70;99.90;;;;;;5004560;28;20058;-67
2024/02/13 05:58:28;;;;;;;17.27;9.82;;;1.70;99.90;;;;;;5005992;28;20064;-66
2024/02/13 06:00:55;;;;;;;16.45;9.55;;;1.70;99.90;;;;;;4996998;28;20049;-69
2024/02/13 06:03:22;;;;;;;19.70;9.82;;;1.70;99.90;;;;;;4975614;28;20042;-70
2024/02/13 06:05:47;;;;;;;16.52;9.18;;;1.60;99.90;;;;;;4981359;28;20043;-67
2024/02/13 06:08:13;;;;;;;19.25;9.88;;;1.60;99.90;;;;;;4978177;28;20076;-68
2024/02/13 06:10:39;;;;;;;16.92;9.88;;;1.60;99.90;;;;;;4989559;28;20489;-69
2024/02/13 06:13:05;;;;;;;18.65;9.00;;;1.60;99.90;;;;;;4986168;28;20046;-68
2024/02/13 06:15:31;;;;;;;16.83;8.48;;;1.70;99.90;;;;;;4984412;28;20038;-68
2024/02/13 06:17:56;;;;;;;18.25;8.23;;;1.70;99.90;;;;;;4982855;28;20042;-66
2024/02/13 06:20:22;;;;;;;18.73;8.82;;;1.70;99.90;;;;;;4984510;28;20045;-67
2024/02/13 06:22:47;;;;;;;22.85;9.20;;;1.70;99.90;;;;;;4981107;28;20516;-65
2024/02/13 06:25:14;;;;;;;18.95;8.77;;;1.80;99.90;;;;;;4983142;28;20046;-64
2024/02/13 06:27:40;;;;;;;15.65;8.52;;;1.70;99.90;;;;;;4981923;28;20525;-64
2024/02/13 06:30:07;;;;;;;18.48;8.85;;;1.70;99.90;;;;;;4985775;28;20046;-65
2024/02/13 06:32:32;;;;;;;16.58;9.23;;;1.80;99.90;;;;;;4989051;28;20737;-62
2024/02/13 06:34:58;;;;;;;13.15;8.15;;;1.80;99.90;;;;;;4985106;28;20120;-65
2024/02/13 06:37:24;;;;;;;24.58;10.82;;;1.80;99.90;;;;;;4980386;28;20437;-68
2024/02/13 06:39:50;;;;;;;17.13;9.60;;;1.90;99.90;;;;;;4988154;28;20060;-68
2024/02/13 06:42:16;;;;;;;17.80;8.90;;;1.80;99.90;;;;;;4980548;28;20026;-67
2024/02/13 06:44:43;;;;;;;17.08;8.70;;;1.90;99.90;;;;;;4985661;28;20038;-66
2024/02/13 06:47:09;;;;;;;22.10;8.20;;;1.80;99.90;;;;;;4985378;28;20418;-67
2024/02/13 06:49:35;;;;;;;19.40;8.43;;;1.80;99.90;;;;;;4985507;28;20038;-65
2024/02/13 06:52:01;;;;;;;14.23;8.48;;;1.90;99.90;;;;;;4987727;28;20507;-65
2024/02/13 06:54:27;;;;;;;24.42;8.70;;;1.90;99.90;;;;;;4984361;28;20052;-68
2024/02/13 06:56:52;;;;;;;21.30;10.05;;;1.90;99.90;;;;;;4983172;28;20522;-67
2024/02/13 06:59:18;;;;;;;17.98;8.32;;;2.00;99.90;;;;;;4983765;28;20080;-68
2024/02/13 07:01:44;;;;;;;16.38;9.23;;;2.00;99.90;;;;;;4980751;28;20046;-67
2024/02/13 07:04:13;;;;;;;17.35;8.45;;;2.00;99.90;;;;;;4982361;28;20034;-70
2024/02/13 07:06:39;;;;;;;18.10;8.90;;;2.10;99.90;;;;;;4981951;28;20157;-65
2024/02/13 07:09:05;;;;;;;11.20;7.57;;;2.10;99.90;;;;;;4982196;28;20522;-66
2024/02/13 07:11:32;;;;;;;14.93;8.65;;;2.10;99.90;;;;;;4988920;28;20049;-66
2024/02/13 07:13:57;;;;;;;15.20;8.20;;;2.10;99.90;;;;;;4980912;28;20552;-68
2024/02/13 07:16:23;;;;;;;17.65;8.20;;;2.20;99.90;;;;;;4982209;28;20118;-66
2024/02/13 07:18:49;;;;;;;15.50;8.10;;;2.30;99.90;;;;;;4984594;28;20049;-67
2024/02/13 07:21:15;;;;;;;14.02;8.55;;;2.30;99.90;;;;;;4991789;28;20064;-66
2024/02/13 07:23:41;;;;;;;18.30;9.02;;;2.40;99.90;;;;;;4979781;28;20034;-66
2024/02/13 07:26:11;;;;;;;18.42;8.25;;;2.40;99.90;;;;;;4990764;28;20781;-70
2024/02/13 07:28:36;;;;;;;14.88;8.93;;;2.40;99.90;;;;;;4982995;28;20050;-67
2024/02/13 07:31:03;;;;;;;16.13;8.30;;;2.50;99.90;;;;;;5000608;28;20140;-67
2024/02/13 07:33:29;;;;;;;16.52;8.30;;;2.50;99.90;;;;;;5007471;28;20601;-67
2024/02/13 07:35:55;;;;;;;17.45;8.70;;;2.60;99.90;;;;;;5006685;28;20044;-67
2024/02/13 07:38:20;;;;;;;13.65;7.80;;;2.60;99.90;;;;;;5002070;28;20034;-67
2024/02/13 07:40:46;;;;;;;13.15;7.50;;;2.60;99.90;;;;;;5009718;28;20044;-67
2024/02/13 07:43:13;;;;;;;13.90;6.97;;;2.70;99.90;;;;;;5008169;28;20040;-67
2024/02/13 07:45:39;;;;;;;14.38;7.28;;;2.70;99.90;;;;;;5011371;28;20527;-68
2024/02/13 07:48:06;;;;;;;14.00;6.82;;;2.80;99.90;;;;;;5005972;28;20096;-67
2024/02/13 07:50:31;;;;;;;10.77;5.15;;;2.90;99.90;;;;;;5007390;28;20038;-67
2024/02/13 07:52:57;;;;;;;11.82;5.97;;;3.00;99.90;;;;;;5008385;28;20125;-67
2024/02/13 07:55:23;;;;;;;12.48;6.03;;;3.00;99.90;;;;;;5004872;28;20038;-69
2024/02/13 07:57:50;;;;;;;10.00;5.22;;;3.20;99.90;;;;;;5009676;28;20064;-68
2024/02/13 08:00:17;;;;;;;9.45;4.40;;;3.20;99.90;;;;;;5017051;28;20502;-66
2024/02/13 08:02:43;;;;;;;11.13;5.07;;;3.20;99.90;;;;;;5017449;28;20045;-67
2024/02/13 08:05:09;;;;;;;10.07;5.68;;;3.40;99.90;;;;;;5008335;28;20037;-69
2024/02/13 08:07:35;;;;;;;9.43;4.05;;;3.50;99.90;;;;;;5002463;28;20449;-67
2024/02/13 08:10:01;;;;;;;8.75;4.60;;;3.70;99.90;;;;;;5009035;28;20040;-68
2024/02/13 08:12:28;;;;;;;8.80;4.53;;;3.80;99.90;;;;;;5008738;28;20152;-66
2024/02/13 08:14:54;;;;;;;7.95;4.55;;;3.70;99.90;;;;;;5021339;28;20105;-65
2024/02/13 08:17:19;;;;;;;12.40;4.30;;;3.70;99.90;;;;;;5008791;28;20470;-66
2024/02/13 08:19:45;;;;;;;9.93;3.80;;;3.70;99.90;;;;;;5024651;28;20048;-67
2024/02/13 08:22:10;;;;;;;7.68;3.55;;;3.70;99.90;;;;;;5010636;28;20030;-68
2024/02/13 08:24:36;;;;;;;6.18;3.00;;;3.60;99.90;;;;;;5013155;28;20088;-67
2024/02/13 08:27:02;;;;;;;5.18;2.90;;;3.60;99.90;;;;;;5006240;28;20073;-67
2024/02/13 08:29:27;;;;;;;6.13;3.20;;;3.60;99.90;;;;;;5006836;28;20108;-68
2024/02/13 08:31:54;;;;;;;6.18;3.20;;;3.60;99.90;;;;;;5001221;28;20116;-68
2024/02/13 08:34:19;;;;;;;5.22;2.30;;;3.70;99.90;;;;;;5006158;28;20062;-68
2024/02/13 08:36:46;;;;;;;9.40;3.28;;;3.70;99.90;;;;;;5011453;28;20738;-66
2024/02/13 08:39:11;;;;;;;10.85;2.72;;;3.70;99.90;;;;;;5004504;28;20405;-68
2024/02/13 08:41:37;;;;;;;7.32;2.88;;;3.80;99.90;;;;;;5014834;28;20049;-69
2024/02/13 08:44:03;;;;;;;8.35;2.97;;;3.80;99.90;;;;;;5006570;28;20095;-67
2024/02/13 08:46:30;;;;;;;6.13;2.88;;;3.90;99.90;;;;;;5011742;28;20891;-67
2024/02/13 08:48:56;;;;;;;8.75;2.67;;;4.00;99.90;;;;;;5003102;28;20775;-68
2024/02/13 08:51:26;;;;;;;5.93;2.97;;;4.10;99.90;;;;;;5010708;28;20061;-69
2024/02/13 08:53:52;;;;;;;5.82;2.80;;;4.00;99.90;;;;;;5002539;28;20488;-68
2024/02/13 08:56:18;;;;;;;4.28;2.40;;;4.10;99.90;;;;;;5004956;28;20045;-69
2024/02/13 08:58:43;;;;;;;5.22;2.70;;;4.20;99.90;;;;;;5001684;28;20045;-67
2024/02/13 09:01:09;;;;;;;6.97;2.83;;;4.20;99.90;;;;;;5000241;28;20041;-67
2024/02/13 09:03:35;;;;;;;8.20;2.65;;;4.20;99.90;;;;;;4994114;28;20121;-67
2024/02/13 09:06:04;;;;;;;4.28;2.80;;;4.30;99.90;;;;;;5029692;28;20056;-66
2024/02/13 09:08:32;;;;;;;3.90;2.17;;;4.30;99.90;;;;;;4984197;28;20038;-68
2024/02/13 09:10:57;;;;;;;6.57;2.42;;;4.40;99.90;;;;;;4992724;28;20124;-67
2024/02/13 09:13:23;;;;;;;5.25;2.40;;;4.50;99.90;;;;;;4981159;28;20650;-66
2024/02/13 09:15:48;;;;;;;7.30;2.55;;;4.60;99.90;;;;;;4992321;28;20036;-68
2024/02/13 09:18:14;;;;;;;10.25;2.67;;;4.60;99.90;;;;;;4988441;28;20049;-67
2024/02/13 09:20:39;;;;;;;4.72;2.67;;;4.70;99.90;;;;;;4990909;28;20038;-68
2024/02/13 09:23:06;;;;;;;4.25;2.28;;;4.70;99.90;;;;;;4987531;28;20038;-66
2024/02/13 09:25:32;;;;;;;5.75;2.28;;;4.70;99.90;;;;;;4995826;28;20092;-67
2024/02/13 09:27:58;;;;;;;6.90;2.75;;;4.60;99.90;;;;;;4989670;28;20042;-68
2024/02/13 09:30:24;;;;;;;9.00;2.78;;;4.40;99.90;;;;;;5002610;28;20779;-66
2024/02/13 09:32:49;;;;;;;4.60;2.35;;;4.40;99.90;;;;;;5004437;28;20037;-68
2024/02/13 09:35:15;;;;;;;4.03;2.15;;;4.40;99.90;;;;;;5007257;28;20133;-66
2024/02/13 09:37:42;;;;;;;9.77;2.65;;;4.40;99.90;;;;;;5013051;28;20045;-67
2024/02/13 09:40:16;;;;;;;4.43;2.13;;;4.50;99.90;;;;;;5022221;28;20052;-67
2024/02/13 09:42:45;;;;;;;7.70;2.38;;;4.50;99.90;;;;;;5003043;28;20119;-67
2024/02/13 09:45:16;;;;;;;3.83;2.17;;;4.50;99.90;;;;;;4090961;28;10001058;-66
2024/02/13 09:47:42;;;;;;;5.45;2.08;;;4.50;99.90;;;;;;4983159;28;20132;-67
2024/02/13 09:50:15;;;;;;;5.55;2.28;;;4.40;99.90;;;;;;4986480;28;20055;-66
2024/02/13 09:52:48;;;;;;;8.88;2.42;;;4.30;99.90;;;;;;4976178;28;20732;-67
2024/02/13 09:55:18;;;;;;;4.53;2.55;;;4.20;99.90;;;;;;4986072;28;20046;-67
2024/02/13 09:57:45;;;;;;;8.75;2.55;;;4.20;99.90;;;;;;4982214;28;20042;-67
2024/02/13 10:00:16;;;;;;;6.13;2.55;;;4.30;99.90;;;;;;4986448;28;20117;-66
2024/02/13 10:02:42;;;;;;;4.28;2.50;;;4.30;99.90;;;;;;5002292;28;20042;-65
2024/02/13 10:05:10;;;;;;;3.85;2.30;;;4.30;99.90;;;;;;5007112;28;20045;-67
2024/02/13 10:07:42;;;;;;;5.28;2.92;;;4.30;99.90;;;;;;5003683;28;20153;-66
2024/02/13 10:10:12;;;;;;;13.63;3.38;;;4.50;99.90;;;;;;5006341;28;20481;-67
2024/02/13 10:12:51;;;;;;;3.85;2.30;;;4.40;99.90;;;;;;5005796;28;20033;-67
2024/02/13 10:15:17;;;;;;;8.20;2.28;;;4.50;99.90;;;;;;5006064;28;20180;-66
2024/02/13 10:17:44;;;;;;;8.70;2.70;;;4.50;99.90;;;;;;5000217;28;20164;-68
2024/02/13 10:20:13;;;;;;;5.80;2.47;;;4.60;99.90;;;;;;5005994;28;20061;-67
2024/02/13 10:22:50;;;;;;;6.00;2.35;;;4.60;99.90;;;;;;4996519;28;20678;-65
2024/02/13 10:25:22;;;;;;;7.38;2.55;;;4.70;99.90;;;;;;4968445;28;20073;-67
2024/02/13 10:27:49;;;;;;;5.90;2.50;;;4.80;99.90;;;;;;5001078;28;20049;-66
2024/02/13 10:30:25;;;;;;;4.38;2.28;;;4.90;99.90;;;;;;5004332;28;20049;-67
2024/02/13 10:32:51;;;;;;;5.43;2.38;;;4.90;99.90;;;;;;4998917;28;20502;-71
2024/02/13 10:37:52;;;;;;;5.63;2.13;;;5.10;99.90;;;;;;4929496;28;20078;-68
2024/02/13 10:40:23;;;;;;;7.65;2.20;;;5.10;99.90;;;;;;4950556;28;20051;-68
2024/02/13 10:42:52;;;;;;;14.90;2.80;;;5.10;99.90;;;;;;4956285;28;20047;-66
2024/02/13 10:45:18;;;;;;;3.75;2.38;;;5.10;99.90;;;;;;4952050;28;20050;-67
2024/02/13 10:47:51;;;;;;;12.00;2.90;;;5.10;99.90;;;;;;4934457;29;20047;-67
2024/02/13 10:52:58;;;;;;;8.90;2.53;;;5.00;99.90;;;;;;5260183;23;20053;-67
2024/02/13 10:55:24;;;;;;;5.55;2.20;;;5.00;99.90;;;;;;4996169;28;20045;-68
2024/02/13 10:57:51;;;;;;;4.93;2.30;;;5.10;99.90;;;;;;4093084;28;10000991;-65
2024/02/13 11:00:20;;;;;;;3.10;2.05;;;5.00;99.90;;;;;;4994719;28;20486;-66
2024/02/13 11:02:54;;;;;;;7.10;2.42;;;5.10;99.90;;;;;;4994189;28;20049;-65
2024/02/13 11:05:19;;;;;;;3.05;2.03;;;5.00;99.90;;;;;;4998073;28;20069;-66
2024/02/13 11:07:47;;;;;;;13.23;2.58;;;5.00;99.90;;;;;;4996188;28;20085;-67
2024/02/13 11:10:13;;;;;;;6.97;2.30;;;5.00;99.90;;;;;;4993559;28;20044;-67
2024/02/13 11:12:39;;;;;;;5.47;2.67;;;5.00;99.90;;;;;;4995013;28;20030;-67
2024/02/13 11:15:08;;;;;;;7.40;2.53;;;5.00;99.90;;;;;;4994578;28;20033;-67
2024/02/13 11:17:43;;;;;;;5.32;2.38;;;5.00;99.90;;;;;;4986878;28;20043;-67
2024/02/13 11:20:09;;;;;;;6.55;2.10;;;5.10;99.90;;;;;;4993720;28;20034;-67
2024/02/13 11:22:37;;;;;;;10.02;2.58;;;5.20;99.90;;;;;;4986240;28;20038;-68
2024/02/13 11:25:08;;;;;;;6.53;2.40;;;5.30;99.90;;;;;;4984575;28;20046;-67
2024/02/13 11:27:37;;;;;;;6.53;2.30;;;5.40;99.90;;;;;;5000260;28;20373;-67
2024/02/13 11:30:06;;;;;;;9.20;2.08;;;5.40;99.90;;;;;;4056701;28;10000966;-67
2024/02/13 11:32:34;;;;;;;5.18;1.98;;;5.60;99.90;;;;;;4992792;28;20049;-67
2024/02/13 11:34:59;;;;;;;8.00;2.20;;;5.60;99.90;;;;;;5004296;28;20749;-66
2024/02/13 11:37:30;;;;;;;7.03;2.00;;;5.70;99.90;;;;;;4995967;28;20196;-66
2024/02/13 11:39:58;;;;;;;3.78;1.92;;;5.70;99.90;;;;;;5004502;28;20440;-67
2024/02/13 11:42:32;;;;;;;8.68;2.63;;;5.70;99.90;;;;;;4994384;28;20042;-68
2024/02/13 11:47:42;;;;;;;7.00;2.00;;;5.70;99.90;;;;;;5776016;22;20942;-67
2024/02/13 11:50:08;;;;;;;5.25;2.17;;;5.60;99.90;;;;;;4092227;28;10000989;-68
2024/02/13 11:52:34;;;;;;;7.18;1.85;;;5.60;99.90;;;;;;5007738;28;20046;-68
2024/02/13 11:55:01;;;;;;;4.30;1.48;;;5.60;99.90;;;;;;4999813;28;20596;-67
2024/02/13 11:57:27;;;;;;;6.97;2.53;;;5.70;99.90;;;;;;4996745;28;20042;-67
2024/02/13 11:59:57;;;;;;;3.50;1.88;;;5.80;99.90;;;;;;4991872;28;20092;-69
2024/02/13 12:07:36;;;;;;;5.32;2.03;;;5.70;99.90;;;;;;5012911;28;20488;-68
2024/02/13 12:10:02;;;;;;;4.65;2.10;;;5.50;99.90;;;;;;5026552;28;20068;-69
2024/02/13 12:12:28;;;;;;;8.23;2.58;;;5.50;99.90;;;;;;5017992;28;20048;-71
2024/02/13 12:14:54;;;;;;;5.65;2.00;;;5.60;99.90;;;;;;5021285;28;20045;-69
2024/02/13 12:17:20;;;;;;;7.32;1.92;;;5.60;99.90;;;;;;5011385;28;20480;-69
2024/02/13 12:19:46;;;;;;;3.63;1.65;;;5.60;99.90;;;;;;5011270;28;20108;-68
2024/02/13 12:22:16;;;;;;;3.00;1.70;;;5.70;99.90;;;;;;5011160;28;20531;-69
2024/02/13 12:24:44;;;;;;;4.80;1.60;;;5.70;99.90;;;;;;5006274;28;20045;-68
2024/02/13 12:27:10;;;;;;;4.15;1.73;;;5.60;99.90;;;;;;5007853;28;20076;-65
2024/02/13 12:29:42;;;;;;;6.45;1.92;;;5.60;99.90;;;;;;5007500;28;20489;-70
2024/02/13 12:32:10;;;;;;;8.75;1.58;;;5.60;99.90;;;;;;4989004;28;20057;-70
2024/02/13 12:34:36;;;;;;;4.57;1.70;;;5.60;99.90;;;;;;4992505;28;20120;-70
2024/02/13 12:37:08;;;;;;;7.00;2.20;;;5.70;99.90;;;;;;4984139;28;20564;-70
2024/02/13 12:39:36;;;;;;;4.93;1.70;;;5.60;99.90;;;;;;4990804;28;20065;-70
2024/02/13 12:42:04;;;;;;;3.65;1.60;;;5.70;99.90;;;;;;4992588;28;20050;-69
2024/02/13 12:44:33;;;;;;;6.75;1.80;;;5.70;99.90;;;;;;4992457;28;20050;-69
2024/02/13 12:46:58;;;;;;;4.57;1.73;;;5.60;99.90;;;;;;4987323;28;20066;-69
2024/02/13 12:49:26;;;;;;;3.75;1.17;;;5.60;99.90;;;;;;4994780;28;20077;-69
2024/02/13 12:51:52;;;;;;;7.57;2.03;;;5.50;99.90;;;;;;4985665;28;20049;-68
2024/02/13 12:54:20;;;;;;;3.47;1.45;;;5.50;99.90;;;;;;4992125;28;20033;-68
2024/02/13 12:56:46;;;;;;;3.80;1.63;;;5.40;99.90;;;;;;4993809;28;20050;-69
2024/02/13 12:59:12;;;;;;;6.30;1.85;;;5.50;99.90;;;;;;4993113;28;20049;-69
2024/02/13 13:01:47;;;;;;;5.07;1.60;;;5.60;99.90;;;;;;4990022;28;20056;-69
2024/02/13 13:04:14;;;;;;;4.10;1.30;;;5.50;99.90;;;;;;4990718;28;20038;-69
2024/02/13 13:06:44;;;;;;;8.65;1.80;;;5.60;99.90;;;;;;4991220;28;20042;-70